createdAt,value
2023-08-11T00:02:10.177Z,1.80
2023-08-11T00:08:14.287Z,2.03
2023-08-11T00:14:16.100Z,1.70
2023-08-11T00:20:18.052Z,2.10
2023-08-11T00:26:20.271Z,2.00
2023-08-11T00:32:23.301Z,2.13
2023-08-11T00:38:38.035Z,2.25
2023-08-11T00:45:06.581Z,2.15
2023-08-11T00:51:10.965Z,2.20
2023-08-11T00:57:14.466Z,2.00
2023-08-11T01:03:16.339Z,2.05
2023-08-11T01:09:29.351Z,2.25
2023-08-11T01:15:37.031Z,2.42
2023-08-11T01:21:41.136Z,2.53
2023-08-11T01:27:57.772Z,2.30
2023-08-11T01:33:59.642Z,2.30
2023-08-11T01:40:02.304Z,2.10
2023-08-11T01:46:04.337Z,2.35
2023-08-11T01:52:07.092Z,2.58
2023-08-11T01:58:09.048Z,2.63
2023-08-11T02:04:11.192Z,2.65
2023-08-11T02:10:13.799Z,2.55
2023-08-11T02:16:15.857Z,2.35
2023-08-11T02:22:18.037Z,2.50
2023-08-11T02:28:19.857Z,2.88
2023-08-11T02:34:21.729Z,2.65
2023-08-11T02:40:23.803Z,3.20
2023-08-11T02:46:25.870Z,3.00
2023-08-11T02:52:27.733Z,2.90
2023-08-11T02:58:29.609Z,2.83
2023-08-11T03:04:31.737Z,2.83
2023-08-11T03:10:46.643Z,2.60
2023-08-11T03:16:53.658Z,2.70
2023-08-11T03:22:55.588Z,2.45
2023-08-11T03:29:05.598Z,2.80
2023-08-11T03:35:09.790Z,3.10
2023-08-11T03:41:13.492Z,2.65
2023-08-11T03:47:15.838Z,2.85
2023-08-11T03:53:18.246Z,3.05
2023-08-11T03:59:20.735Z,3.08
2023-08-11T04:05:22.664Z,2.53
2023-08-11T04:11:25.366Z,2.75
2023-08-11T04:17:27.785Z,3.08
2023-08-11T04:23:29.710Z,3.22
2023-08-11T04:29:31.612Z,3.85
2023-08-11T04:35:34.301Z,3.55
2023-08-11T04:41:38.446Z,3.10
2023-08-11T04:47:41.216Z,3.20
2023-08-11T04:53:45.800Z,3.35
2023-08-11T04:59:48.939Z,2.90
2023-08-11T05:05:51.053Z,3.20
2023-08-11T05:11:52.894Z,2.88
2023-08-11T05:17:54.763Z,3.55
2023-08-11T05:23:56.624Z,4.28
2023-08-11T05:29:58.607Z,3.75
2023-08-11T05:36:00.575Z,3.30
2023-08-11T05:42:02.457Z,3.90
2023-08-11T05:48:04.720Z,3.95
2023-08-11T05:54:06.596Z,3.15
2023-08-11T06:00:19.678Z,3.22
2023-08-11T06:13:02.892Z,3.78
2023-08-11T06:19:04.875Z,3.30
2023-08-11T06:25:07.443Z,2.88
2023-08-11T06:31:11.036Z,2.70
2023-08-11T06:37:12.930Z,2.90
2023-08-11T06:43:14.871Z,2.78
2023-08-11T06:49:23.616Z,2.95
2023-08-11T06:55:25.462Z,2.53
2023-08-11T07:01:27.533Z,2.40
2023-08-11T07:07:29.624Z,2.38
2023-08-11T07:13:31.565Z,2.42
2023-08-11T07:19:33.908Z,2.10
2023-08-11T07:25:36.505Z,2.65
2023-08-11T07:31:38.520Z,2.20
2023-08-11T07:37:40.513Z,2.10
2023-08-11T07:43:42.580Z,2.10
2023-08-11T07:49:44.581Z,2.20
2023-08-11T07:55:46.601Z,2.45
2023-08-11T08:01:48.706Z,2.20
2023-08-11T08:07:51.077Z,2.30
2023-08-11T08:13:53.335Z,2.20
2023-08-11T08:19:56.010Z,2.00
2023-08-11T08:25:58.214Z,1.80
2023-08-11T08:32:00.288Z,1.23
2023-08-11T08:38:02.453Z,1.67
2023-08-11T08:44:06.279Z,1.55
2023-08-11T08:50:10.185Z,1.30
2023-08-11T08:56:12.368Z,1.30
2023-08-11T09:02:15.081Z,1.17
2023-08-11T09:08:20.057Z,1.10
2023-08-11T09:14:23.146Z,1.42
2023-08-11T09:20:28.061Z,1.00
2023-08-11T09:26:30.012Z,1.02
2023-08-11T09:32:34.255Z,1.30
2023-08-11T09:38:36.347Z,1.17
2023-08-11T09:44:38.857Z,1.30
2023-08-11T09:50:44.402Z,1.40
2023-08-11T09:56:46.334Z,1.60
2023-08-11T10:03:00.568Z,1.50
2023-08-11T10:09:04.556Z,1.80
2023-08-11T10:15:07.997Z,1.67
2023-08-11T10:21:10.315Z,1.50
2023-08-11T10:27:14.309Z,1.58
2023-08-11T10:33:16.409Z,1.60
2023-08-11T10:39:20.276Z,1.60
2023-08-11T10:45:23.741Z,1.75
2023-08-11T10:51:34.405Z,1.63
2023-08-11T10:57:36.458Z,1.85
2023-08-11T11:03:42.209Z,1.55
2023-08-11T11:09:44.028Z,1.70
2023-08-11T11:15:46.134Z,1.90
2023-08-11T11:21:48.852Z,1.83
2023-08-11T11:27:53.921Z,1.70
2023-08-11T11:33:59.360Z,1.65
2023-08-11T11:40:05.492Z,1.60
2023-08-11T11:46:26.168Z,1.60
2023-08-11T11:52:28.335Z,1.50
2023-08-11T11:58:30.294Z,1.67
2023-08-11T12:04:32.682Z,1.60
2023-08-11T12:10:35.439Z,1.60
2023-08-11T12:16:40.397Z,1.58
2023-08-11T12:22:43.945Z,1.50
2023-08-11T12:28:46.863Z,1.67
2023-08-11T12:34:48.723Z,1.50
2023-08-11T12:40:50.687Z,1.73
2023-08-11T12:46:52.648Z,1.60
2023-08-11T12:52:54.719Z,1.73
2023-08-11T12:58:56.725Z,1.60
2023-08-11T13:04:58.601Z,1.85
2023-08-11T13:11:00.721Z,1.73
2023-08-11T13:17:02.766Z,2.00
2023-08-11T13:23:05.006Z,2.17
2023-08-11T13:29:07.096Z,1.77
2023-08-11T13:35:13.360Z,1.73
2023-08-11T13:41:15.237Z,1.80
2023-08-11T13:47:18.190Z,1.70
2023-08-11T13:53:20.497Z,2.00
2023-08-11T13:59:22.468Z,1.90
2023-08-11T14:05:26.916Z,1.90
2023-08-11T14:11:28.909Z,1.80
2023-08-11T14:17:30.909Z,1.85
2023-08-11T14:23:32.967Z,1.58
2023-08-11T14:29:35.061Z,1.65
2023-08-11T14:35:40.689Z,1.85
2023-08-11T14:41:42.681Z,1.90
2023-08-11T14:47:44.675Z,1.92
2023-08-11T14:53:46.959Z,1.92
2023-08-11T14:59:49.085Z,1.75
2023-08-11T15:05:51.487Z,1.75
2023-08-11T15:11:53.468Z,2.00
2023-08-11T15:17:55.448Z,1.85
2023-08-11T15:23:57.448Z,1.80
2023-08-11T15:29:59.632Z,1.90
2023-08-11T15:36:01.579Z,2.05
2023-08-11T15:42:03.677Z,1.80
2023-08-11T15:48:06.008Z,1.83
2023-08-11T15:54:08.038Z,2.03
2023-08-11T16:00:11.604Z,1.92
2023-08-11T16:06:13.587Z,1.85
2023-08-11T16:12:20.943Z,1.75
2023-08-11T16:18:23.301Z,1.98
2023-08-11T16:24:25.290Z,2.00
2023-08-11T16:30:27.205Z,1.88
2023-08-11T16:36:29.165Z,1.90
2023-08-11T16:42:31.507Z,1.90
2023-08-11T16:48:33.410Z,1.70
2023-08-11T16:54:35.349Z,1.80
2023-08-11T17:00:37.411Z,1.60
2023-08-11T17:06:41.814Z,1.60
2023-08-11T17:12:43.896Z,1.65
2023-08-11T17:18:48.328Z,1.88
2023-08-11T17:24:52.572Z,1.63
2023-08-11T17:30:54.589Z,2.10
2023-08-11T17:36:59.017Z,1.77
2023-08-11T17:43:07.302Z,1.83
2023-08-11T17:57:35.297Z,2.10
2023-08-11T18:03:37.786Z,1.80
2023-08-11T18:09:40.438Z,2.00
2023-08-11T18:15:42.834Z,2.00
2023-08-11T18:21:45.346Z,2.00
2023-08-11T18:27:48.014Z,2.20
2023-08-11T18:33:50.064Z,2.10
2023-08-11T18:39:52.562Z,2.08
2023-08-11T18:45:54.856Z,3.42
2023-08-11T18:51:56.979Z,2.03
2023-08-11T18:57:58.838Z,2.90
2023-08-11T19:04:00.849Z,3.00
2023-08-11T19:10:02.888Z,2.78
2023-08-11T19:16:05.010Z,5.03
2023-08-11T19:22:06.970Z,2.33
2023-08-11T19:28:09.246Z,3.60
2023-08-11T19:34:12.553Z,3.20
2023-08-11T19:40:14.597Z,2.42
2023-08-11T19:46:16.808Z,2.60
2023-08-11T19:52:20.536Z,3.70
2023-08-11T19:58:22.792Z,3.20
2023-08-11T20:04:25.153Z,3.70
2023-08-11T20:10:27.089Z,4.00
2023-08-11T20:16:29.030Z,4.97
2023-08-11T20:22:30.945Z,4.30
2023-08-11T20:28:32.795Z,4.90
2023-08-11T20:34:34.724Z,6.10
2023-08-11T20:40:36.686Z,4.97
2023-08-11T20:46:38.915Z,4.65
2023-08-11T20:52:40.756Z,3.90
2023-08-11T20:58:42.941Z,3.60
2023-08-11T21:04:44.859Z,5.10
2023-08-11T21:10:47.755Z,4.35
2023-08-11T21:16:50.561Z,5.38
2023-08-11T21:22:52.552Z,4.47
2023-08-11T21:28:55.083Z,4.25
2023-08-11T21:34:57.763Z,3.95
2023-08-11T21:41:00.228Z,4.70
2023-08-11T21:47:02.906Z,4.22
2023-08-11T21:53:21.109Z,4.07
2023-08-11T21:59:25.075Z,4.75
2023-08-11T22:05:29.123Z,4.40
2023-08-11T22:11:37.041Z,4.30
2023-08-11T22:17:40.309Z,4.30
2023-08-11T22:23:42.658Z,4.57
2023-08-11T22:29:50.466Z,5.03
2023-08-11T22:41:55.088Z,4.45
2023-08-11T22:47:57.863Z,5.40
2023-08-11T22:54:02.123Z,5.53
2023-08-11T23:00:11.266Z,4.80
2023-08-11T23:06:13.460Z,5.13
2023-08-11T23:12:15.778Z,5.85
2023-08-11T23:18:17.831Z,6.72
2023-08-11T23:24:20.551Z,5.47
2023-08-11T23:30:23.622Z,5.72
2023-08-11T23:36:26.870Z,4.80
2023-08-11T23:42:29.549Z,5.00
2023-08-11T23:48:32.463Z,5.13
2023-08-11T23:54:35.076Z,5.68
